sensor_id;sensor_type;location;lat;lon;timestamp;P1;durP1;ratioP1;P2;durP2;ratioP2
5465;SDS011;2755;50.728;7.108;2023-11-21T00:01:17;132.63;;;58.37;;
5465;SDS011;2755;50.728;7.108;2023-11-21T00:03:42;135.50;;;63.53;;
5465;SDS011;2755;50.728;7.108;2023-11-21T00:06:08;138.27;;;68.27;;
5465;SDS011;2755;50.728;7.108;2023-11-21T00:08:35;133.13;;;58.93;;
5465;SDS011;2755;50.728;7.108;2023-11-21T00:11:01;136.40;;;64.40;;
5465;SDS011;2755;50.728;7.108;2023-11-21T00:13:26;134.50;;;60.77;;
5465;SDS011;2755;50.728;7.108;2023-11-21T00:15:52;138.63;;;69.27;;
5465;SDS011;2755;50.728;7.108;2023-11-21T00:18:18;136.77;;;65.53;;
5465;SDS011;2755;50.728;7.108;2023-11-21T00:20:44;134.47;;;61.67;;
5465;SDS011;2755;50.728;7.108;2023-11-21T00:23:10;136.47;;;64.97;;
5465;SDS011;2755;50.728;7.108;2023-11-21T00:25:35;139.07;;;70.17;;
5465;SDS011;2755;50.728;7.108;2023-11-21T00:28:01;138.30;;;68.30;;
5465;SDS011;2755;50.728;7.108;2023-11-21T00:30:28;140.27;;;72.60;;
5465;SDS011;2755;50.728;7.108;2023-11-21T00:32:55;136.73;;;65.67;;
5465;SDS011;2755;50.728;7.108;2023-11-21T00:35:20;137.37;;;65.83;;
5465;SDS011;2755;50.728;7.108;2023-11-21T00:37:46;138.00;;;66.77;;
5465;SDS011;2755;50.728;7.108;2023-11-21T00:40:12;135.93;;;63.87;;
5465;SDS011;2755;50.728;7.108;2023-11-21T00:42:40;136.50;;;67.17;;
5465;SDS011;2755;50.728;7.108;2023-11-21T00:45:06;137.33;;;65.93;;
5465;SDS011;2755;50.728;7.108;2023-11-21T00:47:32;136.33;;;64.73;;
5465;SDS011;2755;50.728;7.108;2023-11-21T00:49:58;135.77;;;63.17;;
5465;SDS011;2755;50.728;7.108;2023-11-21T00:52:24;132.83;;;59.37;;
5465;SDS011;2755;50.728;7.108;2023-11-21T00:54:50;135.37;;;62.93;;
5465;SDS011;2755;50.728;7.108;2023-11-21T00:57:16;139.57;;;68.77;;
5465;SDS011;2755;50.728;7.108;2023-11-21T00:59:42;136.97;;;67.10;;
5465;SDS011;2755;50.728;7.108;2023-11-21T01:02:07;135.93;;;63.03;;
5465;SDS011;2755;50.728;7.108;2023-11-21T01:04:35;136.47;;;66.27;;
5465;SDS011;2755;50.728;7.108;2023-11-21T01:07:01;138.73;;;67.00;;
5465;SDS011;2755;50.728;7.108;2023-11-21T01:09:27;135.63;;;64.20;;
5465;SDS011;2755;50.728;7.108;2023-11-21T01:11:53;136.50;;;65.30;;
5465;SDS011;2755;50.728;7.108;2023-11-21T01:14:19;136.07;;;63.43;;
5465;SDS011;2755;50.728;7.108;2023-11-21T01:16:44;135.77;;;62.90;;
5465;SDS011;2755;50.728;7.108;2023-11-21T01:19:10;137.17;;;65.17;;
5465;SDS011;2755;50.728;7.108;2023-11-21T01:21:36;137.27;;;66.73;;
5465;SDS011;2755;50.728;7.108;2023-11-21T01:24:02;136.57;;;66.37;;
5465;SDS011;2755;50.728;7.108;2023-11-21T01:26:27;140.30;;;72.60;;
5465;SDS011;2755;50.728;7.108;2023-11-21T01:28:53;136.63;;;62.23;;
5465;SDS011;2755;50.728;7.108;2023-11-21T01:31:19;138.57;;;67.73;;
5465;SDS011;2755;50.728;7.108;2023-11-21T01:33:45;136.90;;;64.37;;
5465;SDS011;2755;50.728;7.108;2023-11-21T01:36:11;139.47;;;70.40;;
5465;SDS011;2755;50.728;7.108;2023-11-21T01:38:36;138.17;;;66.93;;
5465;SDS011;2755;50.728;7.108;2023-11-21T01:41:02;136.07;;;64.47;;
5465;SDS011;2755;50.728;7.108;2023-11-21T01:43:29;138.77;;;69.10;;
5465;SDS011;2755;50.728;7.108;2023-11-21T01:45:57;138.53;;;66.37;;
5465;SDS011;2755;50.728;7.108;2023-11-21T01:48:23;141.07;;;73.03;;
5465;SDS011;2755;50.728;7.108;2023-11-21T01:50:49;137.50;;;64.17;;
5465;SDS011;2755;50.728;7.108;2023-11-21T01:53:16;137.87;;;67.27;;
5465;SDS011;2755;50.728;7.108;2023-11-21T01:55:42;137.33;;;65.73;;
5465;SDS011;2755;50.728;7.108;2023-11-21T01:58:08;137.37;;;65.37;;
5465;SDS011;2755;50.728;7.108;2023-11-21T02:00:35;138.90;;;66.80;;
5465;SDS011;2755;50.728;7.108;2023-11-21T02:03:00;138.20;;;68.40;;
5465;SDS011;2755;50.728;7.108;2023-11-21T02:05:27;136.73;;;66.43;;
5465;SDS011;2755;50.728;7.108;2023-11-21T02:07:54;139.10;;;68.20;;
5465;SDS011;2755;50.728;7.108;2023-11-21T02:10:24;137.30;;;67.90;;
5465;SDS011;2755;50.728;7.108;2023-11-21T02:12:49;137.37;;;66.13;;
5465;SDS011;2755;50.728;7.108;2023-11-21T02:15:16;136.00;;;61.80;;
5465;SDS011;2755;50.728;7.108;2023-11-21T02:18:02;134.83;;;61.07;;
5465;SDS011;2755;50.728;7.108;2023-11-21T02:20:28;135.57;;;61.70;;
5465;SDS011;2755;50.728;7.108;2023-11-21T02:22:55;139.63;;;69.97;;
5465;SDS011;2755;50.728;7.108;2023-11-21T02:25:25;135.37;;;60.43;;
5465;SDS011;2755;50.728;7.108;2023-11-21T02:28:01;136.80;;;64.47;;
5465;SDS011;2755;50.728;7.108;2023-11-21T02:30:28;135.50;;;62.50;;
5465;SDS011;2755;50.728;7.108;2023-11-21T02:32:57;135.37;;;61.93;;
5465;SDS011;2755;50.728;7.108;2023-11-21T02:35:22;139.60;;;67.67;;
5465;SDS011;2755;50.728;7.108;2023-11-21T02:37:50;136.43;;;63.80;;
5465;SDS011;2755;50.728;7.108;2023-11-21T02:40:16;135.80;;;61.83;;
5465;SDS011;2755;50.728;7.108;2023-11-21T02:42:43;136.97;;;63.67;;
5465;SDS011;2755;50.728;7.108;2023-11-21T02:45:10;139.30;;;67.60;;
5465;SDS011;2755;50.728;7.108;2023-11-21T02:47:39;133.43;;;58.30;;
5465;SDS011;2755;50.728;7.108;2023-11-21T02:50:05;134.73;;;61.37;;
5465;SDS011;2755;50.728;7.108;2023-11-21T02:52:33;135.77;;;64.00;;
5465;SDS011;2755;50.728;7.108;2023-11-21T02:54:59;134.47;;;59.80;;
5465;SDS011;2755;50.728;7.108;2023-11-21T02:57:24;135.70;;;62.20;;
5465;SDS011;2755;50.728;7.108;2023-11-21T02:59:50;139.80;;;68.23;;
5465;SDS011;2755;50.728;7.108;2023-11-21T03:02:16;138.60;;;61.97;;
5465;SDS011;2755;50.728;7.108;2023-11-21T03:04:42;136.53;;;63.30;;
5465;SDS011;2755;50.728;7.108;2023-11-21T03:07:08;137.53;;;65.77;;
5465;SDS011;2755;50.728;7.108;2023-11-21T03:09:34;139.87;;;64.77;;
5465;SDS011;2755;50.728;7.108;2023-11-21T03:12:00;134.27;;;59.97;;
5465;SDS011;2755;50.728;7.108;2023-11-21T03:14:26;138.40;;;65.60;;
5465;SDS011;2755;50.728;7.108;2023-11-21T03:16:51;134.50;;;61.07;;
5465;SDS011;2755;50.728;7.108;2023-11-21T03:19:17;134.70;;;60.73;;
5465;SDS011;2755;50.728;7.108;2023-11-21T03:21:43;133.40;;;55.97;;
5465;SDS011;2755;50.728;7.108;2023-11-21T03:24:08;136.03;;;61.90;;
5465;SDS011;2755;50.728;7.108;2023-11-21T03:26:34;132.20;;;55.60;;
5465;SDS011;2755;50.728;7.108;2023-11-21T03:29:02;132.53;;;55.97;;
5465;SDS011;2755;50.728;7.108;2023-11-21T03:31:28;132.30;;;56.40;;
5465;SDS011;2755;50.728;7.108;2023-11-21T03:33:53;133.37;;;58.27;;
5465;SDS011;2755;50.728;7.108;2023-11-21T03:36:19;136.97;;;64.93;;
5465;SDS011;2755;50.728;7.108;2023-11-21T03:38:45;136.07;;;60.93;;
5465;SDS011;2755;50.728;7.108;2023-11-21T03:41:11;136.23;;;62.63;;
5465;SDS011;2755;50.728;7.108;2023-11-21T03:43:37;134.37;;;59.73;;
5465;SDS011;2755;50.728;7.108;2023-11-21T03:46:03;131.97;;;56.83;;
5465;SDS011;2755;50.728;7.108;2023-11-21T03:48:29;136.50;;;63.23;;
5465;SDS011;2755;50.728;7.108;2023-11-21T03:50:55;136.27;;;59.43;;
5465;SDS011;2755;50.728;7.108;2023-11-21T03:53:20;137.17;;;65.03;;
5465;SDS011;2755;50.728;7.108;2023-11-21T03:55:46;133.20;;;57.37;;
5465;SDS011;2755;50.728;7.108;2023-11-21T03:58:12;134.93;;;60.63;;
5465;SDS011;2755;50.728;7.108;2023-11-21T04:00:38;135.80;;;62.57;;
5465;SDS011;2755;50.728;7.108;2023-11-21T04:03:04;135.87;;;62.10;;
5465;SDS011;2755;50.728;7.108;2023-11-21T04:05:30;135.47;;;58.40;;
5465;SDS011;2755;50.728;7.108;2023-11-21T04:07:56;137.17;;;61.73;;
5465;SDS011;2755;50.728;7.108;2023-11-21T04:10:22;134.43;;;61.20;;
5465;SDS011;2755;50.728;7.108;2023-11-21T04:12:48;135.73;;;62.77;;
5465;SDS011;2755;50.728;7.108;2023-11-21T04:15:14;137.40;;;65.17;;
5465;SDS011;2755;50.728;7.108;2023-11-21T04:17:40;137.60;;;65.20;;
5465;SDS011;2755;50.728;7.108;2023-11-21T04:20:07;137.47;;;65.07;;
5465;SDS011;2755;50.728;7.108;2023-11-21T04:22:40;136.17;;;62.83;;
5465;SDS011;2755;50.728;7.108;2023-11-21T04:25:09;136.60;;;63.20;;
5465;SDS011;2755;50.728;7.108;2023-11-21T04:27:42;139.63;;;68.70;;
5465;SDS011;2755;50.728;7.108;2023-11-21T04:30:09;136.57;;;64.57;;
5465;SDS011;2755;50.728;7.108;2023-11-21T04:32:38;137.17;;;63.70;;
5465;SDS011;2755;50.728;7.108;2023-11-21T04:35:07;137.63;;;66.47;;
5465;SDS011;2755;50.728;7.108;2023-11-21T04:37:33;136.83;;;65.53;;
5465;SDS011;2755;50.728;7.108;2023-11-21T04:39:59;137.37;;;64.37;;
5465;SDS011;2755;50.728;7.108;2023-11-21T04:42:25;138.83;;;67.10;;
5465;SDS011;2755;50.728;7.108;2023-11-21T04:44:51;139.07;;;68.10;;
5465;SDS011;2755;50.728;7.108;2023-11-21T04:47:17;136.93;;;64.47;;
5465;SDS011;2755;50.728;7.108;2023-11-21T04:49:45;137.47;;;66.47;;
5465;SDS011;2755;50.728;7.108;2023-11-21T04:52:14;136.70;;;63.30;;
5465;SDS011;2755;50.728;7.108;2023-11-21T04:54:40;135.53;;;63.27;;
5465;SDS011;2755;50.728;7.108;2023-11-21T04:57:05;136.17;;;63.63;;
5465;SDS011;2755;50.728;7.108;2023-11-21T04:59:32;138.67;;;67.67;;
5465;SDS011;2755;50.728;7.108;2023-11-21T05:01:58;137.10;;;63.60;;
5465;SDS011;2755;50.728;7.108;2023-11-21T05:04:25;137.90;;;68.10;;
5465;SDS011;2755;50.728;7.108;2023-11-21T05:06:51;137.90;;;65.27;;
5465;SDS011;2755;50.728;7.108;2023-11-21T05:09:16;136.53;;;62.83;;
5465;SDS011;2755;50.728;7.108;2023-11-21T05:11:42;139.13;;;71.27;;
5465;SDS011;2755;50.728;7.108;2023-11-21T05:14:08;137.37;;;66.27;;
5465;SDS011;2755;50.728;7.108;2023-11-21T05:16:34;136.33;;;64.40;;
5465;SDS011;2755;50.728;7.108;2023-11-21T05:19:00;138.67;;;67.40;;
5465;SDS011;2755;50.728;7.108;2023-11-21T05:21:26;135.60;;;61.87;;
5465;SDS011;2755;50.728;7.108;2023-11-21T05:23:54;138.10;;;65.30;;
5465;SDS011;2755;50.728;7.108;2023-11-21T05:26:20;139.00;;;68.63;;
5465;SDS011;2755;50.728;7.108;2023-11-21T05:28:46;137.93;;;65.27;;
5465;SDS011;2755;50.728;7.108;2023-11-21T05:31:12;138.27;;;66.63;;
5465;SDS011;2755;50.728;7.108;2023-11-21T05:33:38;137.53;;;65.77;;
5465;SDS011;2755;50.728;7.108;2023-11-21T05:36:04;137.43;;;64.60;;
5465;SDS011;2755;50.728;7.108;2023-11-21T05:38:32;140.40;;;62.63;;
5465;SDS011;2755;50.728;7.108;2023-11-21T05:40:58;135.03;;;60.47;;
5465;SDS011;2755;50.728;7.108;2023-11-21T05:43:24;138.47;;;67.07;;
5465;SDS011;2755;50.728;7.108;2023-11-21T05:45:50;135.10;;;61.07;;
5465;SDS011;2755;50.728;7.108;2023-11-21T05:48:16;135.47;;;61.87;;
5465;SDS011;2755;50.728;7.108;2023-11-21T05:50:42;137.17;;;59.60;;
5465;SDS011;2755;50.728;7.108;2023-11-21T05:53:08;135.17;;;60.37;;
5465;SDS011;2755;50.728;7.108;2023-11-21T05:55:36;135.70;;;61.57;;
5465;SDS011;2755;50.728;7.108;2023-11-21T05:58:02;134.20;;;60.13;;
5465;SDS011;2755;50.728;7.108;2023-11-21T06:00:27;135.40;;;60.60;;
5465;SDS011;2755;50.728;7.108;2023-11-21T06:02:53;137.10;;;64.80;;
5465;SDS011;2755;50.728;7.108;2023-11-21T06:05:20;136.87;;;63.63;;
5465;SDS011;2755;50.728;7.108;2023-11-21T06:07:48;136.13;;;61.47;;
5465;SDS011;2755;50.728;7.108;2023-11-21T06:10:14;136.57;;;63.13;;
5465;SDS011;2755;50.728;7.108;2023-11-21T06:12:40;137.70;;;65.97;;
5465;SDS011;2755;50.728;7.108;2023-11-21T06:15:08;136.47;;;62.97;;
5465;SDS011;2755;50.728;7.108;2023-11-21T06:17:35;139.17;;;67.70;;
5465;SDS011;2755;50.728;7.108;2023-11-21T06:20:04;137.87;;;65.07;;
5465;SDS011;2755;50.728;7.108;2023-11-21T06:22:37;141.33;;;65.90;;
5465;SDS011;2755;50.728;7.108;2023-11-21T06:25:03;137.53;;;64.37;;
5465;SDS011;2755;50.728;7.108;2023-11-21T06:27:31;137.33;;;64.33;;
5465;SDS011;2755;50.728;7.108;2023-11-21T06:29:59;138.33;;;63.70;;
5465;SDS011;2755;50.728;7.108;2023-11-21T06:32:25;137.43;;;64.77;;
5465;SDS011;2755;50.728;7.108;2023-11-21T06:34:51;141.97;;;65.87;;
5465;SDS011;2755;50.728;7.108;2023-11-21T06:37:19;137.43;;;64.60;;
5465;SDS011;2755;50.728;7.108;2023-11-21T06:39:48;140.00;;;66.50;;
5465;SDS011;2755;50.728;7.108;2023-11-21T06:42:14;137.20;;;66.10;;
5465;SDS011;2755;50.728;7.108;2023-11-21T06:44:40;139.07;;;67.80;;
5465;SDS011;2755;50.728;7.108;2023-11-21T06:47:06;138.77;;;63.83;;
5465;SDS011;2755;50.728;7.108;2023-11-21T06:49:32;139.07;;;65.87;;
5465;SDS011;2755;50.728;7.108;2023-11-21T06:51:58;141.40;;;69.60;;
5465;SDS011;2755;50.728;7.108;2023-11-21T06:54:24;138.47;;;64.30;;
5465;SDS011;2755;50.728;7.108;2023-11-21T06:56:51;135.57;;;61.57;;
5465;SDS011;2755;50.728;7.108;2023-11-21T06:59:18;136.17;;;61.07;;
5465;SDS011;2755;50.728;7.108;2023-11-21T07:01:44;139.37;;;65.73;;
5465;SDS011;2755;50.728;7.108;2023-11-21T07:04:09;136.67;;;62.20;;
5465;SDS011;2755;50.728;7.108;2023-11-21T07:06:35;138.13;;;65.60;;
5465;SDS011;2755;50.728;7.108;2023-11-21T07:09:02;141.27;;;66.97;;
5465;SDS011;2755;50.728;7.108;2023-11-21T07:11:28;140.57;;;67.27;;
5465;SDS011;2755;50.728;7.108;2023-11-21T07:13:54;137.17;;;64.67;;
5465;SDS011;2755;50.728;7.108;2023-11-21T07:16:19;139.37;;;68.23;;
5465;SDS011;2755;50.728;7.108;2023-11-21T07:18:45;140.47;;;67.83;;
5465;SDS011;2755;50.728;7.108;2023-11-21T07:21:11;135.07;;;62.53;;
5465;SDS011;2755;50.728;7.108;2023-11-21T07:23:37;136.97;;;62.93;;
5465;SDS011;2755;50.728;7.108;2023-11-21T07:26:03;137.63;;;64.43;;
5465;SDS011;2755;50.728;7.108;2023-11-21T07:28:34;138.23;;;64.73;;
5465;SDS011;2755;50.728;7.108;2023-11-21T07:31:00;140.47;;;68.10;;
5465;SDS011;2755;50.728;7.108;2023-11-21T07:33:26;138.80;;;67.77;;
5465;SDS011;2755;50.728;7.108;2023-11-21T07:35:52;137.27;;;63.73;;
5465;SDS011;2755;50.728;7.108;2023-11-21T07:38:18;134.43;;;60.30;;
5465;SDS011;2755;50.728;7.108;2023-11-21T07:40:43;139.03;;;67.40;;
5465;SDS011;2755;50.728;7.108;2023-11-21T07:43:09;139.97;;;66.83;;
5465;SDS011;2755;50.728;7.108;2023-11-21T07:45:35;139.57;;;67.20;;
5465;SDS011;2755;50.728;7.108;2023-11-21T07:48:01;140.83;;;71.37;;
5465;SDS011;2755;50.728;7.108;2023-11-21T07:50:28;138.67;;;67.73;;
5465;SDS011;2755;50.728;7.108;2023-11-21T07:52:54;142.93;;;69.97;;
5465;SDS011;2755;50.728;7.108;2023-11-21T07:55:20;138.03;;;65.87;;
5465;SDS011;2755;50.728;7.108;2023-11-21T07:57:46;137.17;;;64.93;;
5465;SDS011;2755;50.728;7.108;2023-11-21T08:00:12;138.07;;;66.07;;
5465;SDS011;2755;50.728;7.108;2023-11-21T08:02:40;140.10;;;66.60;;
5465;SDS011;2755;50.728;7.108;2023-11-21T08:05:10;138.50;;;66.50;;
5465;SDS011;2755;50.728;7.108;2023-11-21T08:07:37;135.57;;;61.70;;
5465;SDS011;2755;50.728;7.108;2023-11-21T08:10:03;136.50;;;63.30;;
5465;SDS011;2755;50.728;7.108;2023-11-21T08:12:30;136.60;;;64.57;;
5465;SDS011;2755;50.728;7.108;2023-11-21T08:14:56;138.77;;;67.27;;
5465;SDS011;2755;50.728;7.108;2023-11-21T08:17:22;138.10;;;65.57;;
5465;SDS011;2755;50.728;7.108;2023-11-21T08:19:48;138.30;;;68.90;;
5465;SDS011;2755;50.728;7.108;2023-11-21T08:22:16;137.83;;;66.33;;
5465;SDS011;2755;50.728;7.108;2023-11-21T08:24:43;142.60;;;73.40;;
5465;SDS011;2755;50.728;7.108;2023-11-21T08:27:09;140.90;;;71.03;;
5465;SDS011;2755;50.728;7.108;2023-11-21T08:29:34;142.50;;;73.50;;
5465;SDS011;2755;50.728;7.108;2023-11-21T08:32:01;142.67;;;74.63;;
5465;SDS011;2755;50.728;7.108;2023-11-21T08:34:27;144.07;;;78.20;;
5465;SDS011;2755;50.728;7.108;2023-11-21T08:36:53;144.60;;;79.73;;
5465;SDS011;2755;50.728;7.108;2023-11-21T08:39:20;145.57;;;80.47;;
5465;SDS011;2755;50.728;7.108;2023-11-21T08:41:49;145.93;;;81.43;;
5465;SDS011;2755;50.728;7.108;2023-11-21T08:44:15;143.27;;;75.87;;
5465;SDS011;2755;50.728;7.108;2023-11-21T08:46:43;143.57;;;75.70;;
5465;SDS011;2755;50.728;7.108;2023-11-21T08:49:10;149.30;;;82.07;;
5465;SDS011;2755;50.728;7.108;2023-11-21T08:51:36;146.60;;;83.47;;
5465;SDS011;2755;50.728;7.108;2023-11-21T08:54:03;147.67;;;85.10;;
5465;SDS011;2755;50.728;7.108;2023-11-21T08:56:32;148.30;;;82.47;;
5465;SDS011;2755;50.728;7.108;2023-11-21T08:58:58;147.17;;;84.80;;
5465;SDS011;2755;50.728;7.108;2023-11-21T09:01:27;151.90;;;84.70;;
5465;SDS011;2755;50.728;7.108;2023-11-21T09:03:53;149.87;;;87.00;;
5465;SDS011;2755;50.728;7.108;2023-11-21T09:06:19;151.13;;;87.40;;
5465;SDS011;2755;50.728;7.108;2023-11-21T09:08:44;147.23;;;83.67;;
5465;SDS011;2755;50.728;7.108;2023-11-21T09:11:10;148.03;;;81.57;;
5465;SDS011;2755;50.728;7.108;2023-11-21T09:13:35;149.43;;;84.87;;
5465;SDS011;2755;50.728;7.108;2023-11-21T09:16:01;153.37;;;92.80;;
5465;SDS011;2755;50.728;7.108;2023-11-21T09:18:28;154.03;;;95.60;;
5465;SDS011;2755;50.728;7.108;2023-11-21T09:20:54;155.13;;;97.17;;
5465;SDS011;2755;50.728;7.108;2023-11-21T09:23:19;152.40;;;90.07;;
5465;SDS011;2755;50.728;7.108;2023-11-21T09:25:45;152.73;;;93.73;;
5465;SDS011;2755;50.728;7.108;2023-11-21T09:28:11;153.20;;;92.67;;
5465;SDS011;2755;50.728;7.108;2023-11-21T09:30:37;148.50;;;84.13;;
5465;SDS011;2755;50.728;7.108;2023-11-21T09:33:03;148.47;;;82.77;;
5465;SDS011;2755;50.728;7.108;2023-11-21T09:35:32;148.03;;;81.57;;
5465;SDS011;2755;50.728;7.108;2023-11-21T09:37:58;145.40;;;81.20;;
5465;SDS011;2755;50.728;7.108;2023-11-21T09:40:26;147.77;;;81.60;;
5465;SDS011;2755;50.728;7.108;2023-11-21T09:42:56;148.00;;;82.97;;
5465;SDS011;2755;50.728;7.108;2023-11-21T09:45:27;147.50;;;81.03;;
5465;SDS011;2755;50.728;7.108;2023-11-21T09:47:54;147.37;;;82.73;;
5465;SDS011;2755;50.728;7.108;2023-11-21T09:50:21;149.63;;;84.90;;
5465;SDS011;2755;50.728;7.108;2023-11-21T09:55:32;149.10;;;83.63;;
5465;SDS011;2755;50.728;7.108;2023-11-21T09:58:04;149.57;;;85.27;;
5465;SDS011;2755;50.728;7.108;2023-11-21T10:00:32;147.57;;;81.07;;
5465;SDS011;2755;50.728;7.108;2023-11-21T10:02:59;151.10;;;89.43;;
5465;SDS011;2755;50.728;7.108;2023-11-21T10:05:25;148.47;;;84.97;;
5465;SDS011;2755;50.728;7.108;2023-11-21T10:07:50;159.47;;;103.47;;
5465;SDS011;2755;50.728;7.108;2023-11-21T10:10:18;152.53;;;90.73;;
5465;SDS011;2755;50.728;7.108;2023-11-21T10:12:48;156.00;;;95.40;;
5465;SDS011;2755;50.728;7.108;2023-11-21T10:15:18;152.47;;;91.97;;
5465;SDS011;2755;50.728;7.108;2023-11-21T10:17:46;155.27;;;94.70;;
5465;SDS011;2755;50.728;7.108;2023-11-21T10:20:14;154.13;;;92.67;;
5465;SDS011;2755;50.728;7.108;2023-11-21T10:22:40;150.67;;;86.57;;
5465;SDS011;2755;50.728;7.108;2023-11-21T10:25:07;155.20;;;94.40;;
5465;SDS011;2755;50.728;7.108;2023-11-21T10:27:37;154.83;;;92.97;;
5465;SDS011;2755;50.728;7.108;2023-11-21T10:30:05;151.47;;;86.67;;
5465;SDS011;2755;50.728;7.108;2023-11-21T10:32:33;150.67;;;86.23;;
5465;SDS011;2755;50.728;7.108;2023-11-21T10:34:59;151.03;;;87.40;;
5465;SDS011;2755;50.728;7.108;2023-11-21T10:37:25;155.53;;;92.27;;
5465;SDS011;2755;50.728;7.108;2023-11-21T10:39:57;156.57;;;90.80;;
5465;SDS011;2755;50.728;7.108;2023-11-21T10:42:23;150.53;;;85.33;;
5465;SDS011;2755;50.728;7.108;2023-11-21T10:44:49;153.17;;;88.43;;
5465;SDS011;2755;50.728;7.108;2023-11-21T10:47:16;153.57;;;90.40;;
5465;SDS011;2755;50.728;7.108;2023-11-21T10:49:44;155.97;;;93.20;;
5465;SDS011;2755;50.728;7.108;2023-11-21T10:52:12;153.47;;;88.00;;
5465;SDS011;2755;50.728;7.108;2023-11-21T10:54:42;155.73;;;93.07;;
5465;SDS011;2755;50.728;7.108;2023-11-21T10:57:11;154.57;;;88.77;;
5465;SDS011;2755;50.728;7.108;2023-11-21T10:59:42;149.80;;;84.27;;
5465;SDS011;2755;50.728;7.108;2023-11-21T11:02:17;150.97;;;82.67;;
5465;SDS011;2755;50.728;7.108;2023-11-21T11:04:50;148.27;;;80.17;;
5465;SDS011;2755;50.728;7.108;2023-11-21T11:07:18;152.53;;;87.53;;
5465;SDS011;2755;50.728;7.108;2023-11-21T11:09:49;148.97;;;80.57;;
5465;SDS011;2755;50.728;7.108;2023-11-21T11:12:15;150.00;;;81.97;;
5465;SDS011;2755;50.728;7.108;2023-11-21T11:14:42;146.80;;;76.93;;
5465;SDS011;2755;50.728;7.108;2023-11-21T11:17:10;145.30;;;75.67;;
5465;SDS011;2755;50.728;7.108;2023-11-21T11:19:36;151.27;;;80.40;;
5465;SDS011;2755;50.728;7.108;2023-11-21T11:30:40;143.73;;;68.80;;
5465;SDS011;2755;50.728;7.108;2023-11-21T11:39:26;138.97;;;63.23;;
5465;SDS011;2755;50.728;7.108;2023-11-21T11:41:55;140.13;;;66.47;;
5465;SDS011;2755;50.728;7.108;2023-11-21T11:47:14;137.77;;;60.13;;
5465;SDS011;2755;50.728;7.108;2023-11-21T11:49:58;140.03;;;66.50;;
5465;SDS011;2755;50.728;7.108;2023-11-21T11:55:08;138.67;;;64.47;;
5465;SDS011;2755;50.728;7.108;2023-11-21T11:57:35;141.43;;;68.43;;
5465;SDS011;2755;50.728;7.108;2023-11-21T12:00:10;137.17;;;62.07;;
5465;SDS011;2755;50.728;7.108;2023-11-21T12:02:41;139.53;;;63.07;;
5465;SDS011;2755;50.728;7.108;2023-11-21T12:05:11;137.67;;;60.97;;
5465;SDS011;2755;50.728;7.108;2023-11-21T12:07:56;135.80;;;57.03;;
5465;SDS011;2755;50.728;7.108;2023-11-21T12:10:24;136.10;;;59.70;;
5465;SDS011;2755;50.728;7.108;2023-11-21T12:12:54;139.20;;;63.20;;
5465;SDS011;2755;50.728;7.108;2023-11-21T12:15:23;138.30;;;61.63;;
5465;SDS011;2755;50.728;7.108;2023-11-21T12:17:50;136.50;;;61.33;;
5465;SDS011;2755;50.728;7.108;2023-11-21T12:20:19;141.00;;;66.17;;
5465;SDS011;2755;50.728;7.108;2023-11-21T12:22:53;136.70;;;60.07;;
5465;SDS011;2755;50.728;7.108;2023-11-21T12:25:23;136.97;;;57.97;;
5465;SDS011;2755;50.728;7.108;2023-11-21T12:27:53;136.20;;;59.67;;
5465;SDS011;2755;50.728;7.108;2023-11-21T12:30:20;138.67;;;65.40;;
5465;SDS011;2755;50.728;7.108;2023-11-21T12:32:50;138.43;;;65.47;;
5465;SDS011;2755;50.728;7.108;2023-11-21T12:35:18;141.67;;;69.13;;
5465;SDS011;2755;50.728;7.108;2023-11-21T12:37:46;138.13;;;66.97;;
5465;SDS011;2755;50.728;7.108;2023-11-21T12:40:13;141.20;;;68.07;;
5465;SDS011;2755;50.728;7.108;2023-11-21T12:42:43;142.30;;;71.47;;
5465;SDS011;2755;50.728;7.108;2023-11-21T12:45:09;140.93;;;70.30;;
5465;SDS011;2755;50.728;7.108;2023-11-21T12:47:42;141.07;;;69.70;;
5465;SDS011;2755;50.728;7.108;2023-11-21T12:50:09;142.67;;;75.07;;
5465;SDS011;2755;50.728;7.108;2023-11-21T12:52:44;142.60;;;72.67;;
5465;SDS011;2755;50.728;7.108;2023-11-21T12:55:17;142.80;;;74.20;;
5465;SDS011;2755;50.728;7.108;2023-11-21T12:57:44;148.23;;;83.17;;
5465;SDS011;2755;50.728;7.108;2023-11-21T13:00:15;147.30;;;82.93;;
5465;SDS011;2755;50.728;7.108;2023-11-21T13:02:52;149.07;;;84.83;;
5465;SDS011;2755;50.728;7.108;2023-11-21T13:05:26;153.80;;;93.10;;
5465;SDS011;2755;50.728;7.108;2023-11-21T13:08:02;145.07;;;79.17;;
5465;SDS011;2755;50.728;7.108;2023-11-21T13:10:32;146.20;;;80.80;;
5465;SDS011;2755;50.728;7.108;2023-11-21T13:13:01;146.10;;;80.57;;
5465;SDS011;2755;50.728;7.108;2023-11-21T13:15:30;150.67;;;89.43;;
5465;SDS011;2755;50.728;7.108;2023-11-21T13:17:56;148.77;;;85.33;;
5465;SDS011;2755;50.728;7.108;2023-11-21T13:20:23;148.03;;;85.20;;
5465;SDS011;2755;50.728;7.108;2023-11-21T13:22:54;145.87;;;80.93;;
5465;SDS011;2755;50.728;7.108;2023-11-21T13:25:27;149.10;;;83.33;;
5465;SDS011;2755;50.728;7.108;2023-11-21T13:27:54;150.90;;;85.87;;
5465;SDS011;2755;50.728;7.108;2023-11-21T13:30:20;148.57;;;85.87;;
5465;SDS011;2755;50.728;7.108;2023-11-21T13:32:58;147.40;;;81.93;;
5465;SDS011;2755;50.728;7.108;2023-11-21T13:35:27;150.50;;;88.00;;
5465;SDS011;2755;50.728;7.108;2023-11-21T13:38:33;149.20;;;85.60;;
5465;SDS011;2755;50.728;7.108;2023-11-21T13:40:57;149.07;;;83.67;;
5465;SDS011;2755;50.728;7.108;2023-11-21T13:43:24;148.60;;;82.27;;
5465;SDS011;2755;50.728;7.108;2023-11-21T13:45:51;149.17;;;87.57;;
5465;SDS011;2755;50.728;7.108;2023-11-21T13:48:26;150.80;;;86.73;;
5465;SDS011;2755;50.728;7.108;2023-11-21T13:51:05;146.77;;;81.27;;
5465;SDS011;2755;50.728;7.108;2023-11-21T13:53:45;147.07;;;82.80;;
5465;SDS011;2755;50.728;7.108;2023-11-21T13:56:14;149.37;;;88.57;;
5465;SDS011;2755;50.728;7.108;2023-11-21T13:58:44;165.10;;;117.27;;
5465;SDS011;2755;50.728;7.108;2023-11-21T14:01:16;151.00;;;89.53;;
5465;SDS011;2755;50.728;7.108;2023-11-21T14:04:03;150.17;;;86.80;;
5465;SDS011;2755;50.728;7.108;2023-11-21T14:06:48;150.43;;;87.73;;
5465;SDS011;2755;50.728;7.108;2023-11-21T14:09:20;150.00;;;87.07;;
5465;SDS011;2755;50.728;7.108;2023-11-21T14:14:17;150.57;;;88.87;;
5465;SDS011;2755;50.728;7.108;2023-11-21T14:16:43;150.77;;;87.50;;
5465;SDS011;2755;50.728;7.108;2023-11-21T14:19:09;153.23;;;90.87;;
5465;SDS011;2755;50.728;7.108;2023-11-21T14:21:44;147.80;;;85.60;;
5465;SDS011;2755;50.728;7.108;2023-11-21T14:24:13;150.93;;;88.33;;
5465;SDS011;2755;50.728;7.108;2023-11-21T14:26:40;152.53;;;86.07;;
5465;SDS011;2755;50.728;7.108;2023-11-21T14:29:07;143.60;;;75.40;;
5465;SDS011;2755;50.728;7.108;2023-11-21T14:31:33;145.40;;;77.60;;
5465;SDS011;2755;50.728;7.108;2023-11-21T14:33:59;148.03;;;84.90;;
5465;SDS011;2755;50.728;7.108;2023-11-21T14:36:31;150.57;;;86.40;;
5465;SDS011;2755;50.728;7.108;2023-11-21T14:38:57;150.90;;;87.73;;
5465;SDS011;2755;50.728;7.108;2023-11-21T14:41:23;146.40;;;82.17;;
5465;SDS011;2755;50.728;7.108;2023-11-21T14:43:50;144.90;;;77.83;;
5465;SDS011;2755;50.728;7.108;2023-11-21T14:46:17;147.67;;;82.70;;
5465;SDS011;2755;50.728;7.108;2023-11-21T14:48:44;146.80;;;80.63;;
5465;SDS011;2755;50.728;7.108;2023-11-21T14:51:23;144.43;;;79.57;;
5465;SDS011;2755;50.728;7.108;2023-11-21T14:53:56;145.73;;;80.07;;
5465;SDS011;2755;50.728;7.108;2023-11-21T14:56:26;143.50;;;76.17;;
5465;SDS011;2755;50.728;7.108;2023-11-21T14:58:56;146.70;;;81.97;;
5465;SDS011;2755;50.728;7.108;2023-11-21T15:01:25;145.30;;;78.73;;